Time;durP1;ratioP1;P1;durP2;ratioP2;P2;SDS_P1;SDS_P2;PMS_P1;PMS_P2;Temp;Humidity;BMP_temperature;BMP_pressure;BME280_temperature;BME280_humidity;BME280_pressure;Samples;Min_cycle;Max_cycle;Signal;HPM_P1;HPM_P2
2023/08/15 00:00:38;;;;;;;11.07;7.22;;;;;;;19.96;87.29;95872.94;2065897;28;20058;-58
2023/08/15 00:01:39;;;;;;;10.50;7.28;;;;;;;19.98;87.02;95875.44;2064514;28;20059;-58
2023/08/15 00:02:40;;;;;;;11.48;7.03;;;;;;;19.97;87.08;95863.25;2065016;28;20065;-58
2023/08/15 00:03:41;;;;;;;10.27;7.05;;;;;;;19.92;87.14;95863.66;2065982;28;20081;-58
2023/08/15 00:04:42;;;;;;;10.98;7.32;;;;;;;19.89;86.90;95868.31;2065373;28;20059;-58
2023/08/15 00:05:43;;;;;;;10.77;7.40;;;;;;;19.89;86.96;95863.91;2065315;28;20054;-56
2023/08/15 00:06:44;;;;;;;8.55;7.28;;;;;;;19.90;86.92;95862.94;2065674;28;20054;-58
2023/08/15 00:07:45;;;;;;;8.43;7.03;;;;;;;19.93;86.80;95864.47;2065730;28;20046;-59
2023/08/15 00:08:53;;;;;;;10.13;7.00;;;;;;;19.95;86.67;95862.53;2065307;28;20054;-60
2023/08/15 00:09:54;;;;;;;10.07;7.00;;;;;;;19.97;86.59;95864.06;2065862;28;20058;-59
2023/08/15 00:10:55;;;;;;;9.98;7.60;;;;;;;19.97;86.53;95864.06;2065355;28;20050;-60
2023/08/15 00:11:56;;;;;;;12.82;7.50;;;;;;;19.98;86.38;95857.81;2065853;28;20047;-59
2023/08/15 00:12:57;;;;;;;10.90;7.43;;;;;;;19.95;86.34;95855.47;2064691;28;20057;-60
2023/08/15 00:13:58;;;;;;;9.20;7.45;;;;;;;20.01;86.24;95862.81;2065473;28;20058;-59
2023/08/15 00:15:00;;;;;;;10.25;6.72;;;;;;;20.02;86.17;95863.66;2065678;28;20058;-60
2023/08/15 00:16:01;;;;;;;12.25;6.85;;;;;;;20.02;86.07;95861.88;2065298;28;20054;-57
2023/08/15 00:17:02;;;;;;;11.77;7.53;;;;;;;20.00;86.54;95858.53;2065611;28;20403;-60
2023/08/15 00:18:04;;;;;;;8.45;7.30;;;;;;;19.91;87.02;95846.16;2064987;28;20080;-60
2023/08/15 00:19:05;;;;;;;15.18;7.40;;;;;;;19.93;86.77;95860.03;2065031;28;20046;-60
2023/08/15 00:20:06;;;;;;;10.13;7.90;;;;;;;19.91;86.94;95855.84;2065674;28;20050;-59
2023/08/15 00:21:07;;;;;;;10.77;7.18;;;;;;;19.86;87.35;95860.69;2064750;28;20061;-59
2023/08/15 00:22:08;;;;;;;11.75;7.40;;;;;;;19.81;87.77;95858.47;2065080;28;20054;-59
2023/08/15 00:23:10;;;;;;;10.52;7.10;;;;;;;19.76;87.91;95858.88;2065316;28;20050;-59
2023/08/15 00:24:11;;;;;;;12.07;7.53;;;;;;;19.74;88.16;95855.50;2065648;28;20046;-59
2023/08/15 00:25:12;;;;;;;9.85;6.63;;;;;;;19.74;88.14;95858.16;2065168;28;20054;-59
2023/08/15 00:26:13;;;;;;;11.27;6.93;;;;;;;19.77;88.10;95857.88;2065205;28;20054;-59
2023/08/15 00:27:14;;;;;;;10.30;7.47;;;;;;;19.82;87.79;95863.59;2056951;28;20054;-59
2023/08/15 00:28:16;;;;;;;11.40;7.20;;;;;;;19.85;87.49;95866.94;2056949;28;20055;-59
2023/08/15 00:29:17;;;;;;;9.18;6.82;;;;;;;19.85;87.24;95866.94;2065278;28;20051;-59
2023/08/15 00:30:18;;;;;;;10.55;6.90;;;;;;;19.81;87.39;95864.56;2058695;28;20435;-60
2023/08/15 00:31:19;;;;;;;11.52;7.03;;;;;;;19.73;88.19;95869.66;2058258;28;20047;-59
2023/08/15 00:32:21;;;;;;;10.68;7.65;;;;;;;19.63;88.82;95870.56;2066726;28;20065;-59
2023/08/15 00:33:24;;;;;;;9.85;7.20;;;;;;;19.60;89.12;95864.56;2066302;28;20050;-59
2023/08/15 00:34:25;;;;;;;8.73;7.18;;;;;;;19.52;89.49;95869.66;2066516;28;20062;-59
2023/08/15 00:35:26;;;;;;;8.90;6.93;;;;;;;19.51;89.49;95865.38;2058699;28;20062;-59
2023/08/15 00:36:27;;;;;;;8.75;7.68;;;;;;;19.45;89.34;95870.31;2058420;28;20082;-59
2023/08/15 00:37:28;;;;;;;9.05;7.63;;;;;;;19.45;89.37;95872.94;2067180;28;20065;-59
2023/08/15 00:38:30;;;;;;;10.60;8.10;;;;;;;19.44;89.35;95881.81;2066598;28;20058;-59
2023/08/15 00:39:31;;;;;;;9.52;7.15;;;;;;;19.40;89.29;95883.84;2066529;28;20058;-59
2023/08/15 00:40:32;;;;;;;10.00;7.30;;;;;;;19.36;89.50;95893.81;2066617;28;20522;-59
2023/08/15 00:41:33;;;;;;;9.82;7.38;;;;;;;19.29;90.31;95903.19;2058274;28;20050;-59
2023/08/15 00:42:34;;;;;;;11.52;7.90;;;;;;;19.23;90.69;95908.97;2043132;28;20060;-59
2023/08/15 00:43:36;;;;;;;9.50;6.97;;;;;;;19.18;91.02;95909.34;2050572;29;20055;-58
2023/08/15 00:44:40;;;;;;;14.07;8.68;;;;;;;19.12;91.27;95919.56;2066560;28;20057;-58
2023/08/15 00:45:41;;;;;;;12.43;9.13;;;;;;;19.09;91.69;95911.94;2058544;28;20062;-59
2023/08/15 00:46:43;;;;;;;13.35;9.75;;;;;;;19.06;91.46;95905.13;2050416;28;20062;-59
2023/08/15 00:47:45;;;;;;;12.63;9.30;;;;;;;19.13;91.23;95908.06;2058928;28;20046;-59
2023/08/15 00:48:46;;;;;;;11.43;8.48;;;;;;;19.13;91.34;95897.53;2066706;28;20054;-59
2023/08/15 00:49:48;;;;;;;12.00;9.23;;;;;;;19.15;91.12;95895.63;2066957;28;20093;-59
2023/08/15 00:50:50;;;;;;;12.35;8.38;;;;;;;19.15;91.00;95888.56;2058571;28;20055;-59
2023/08/15 00:51:51;;;;;;;15.07;9.13;;;;;;;19.16;90.79;95898.13;2058521;28;20537;-59
2023/08/15 00:52:52;;;;;;;10.85;9.23;;;;;;;19.15;90.64;95893.81;2050454;28;20062;-60
2023/08/15 00:53:53;;;;;;;13.27;8.65;;;;;;;19.13;91.24;95903.63;2050493;28;20518;-60
2023/08/15 00:54:54;;;;;;;10.23;8.45;;;;;;;19.08;91.00;95908.44;2050607;28;20062;-60
2023/08/15 00:55:55;;;;;;;10.32;8.38;;;;;;;18.98;91.68;95907.53;2058133;28;20046;-59
2023/08/15 00:56:57;;;;;;;13.18;10.15;;;;;;;19.00;91.87;95896.88;2050462;28;20043;-59
2023/08/15 00:57:58;;;;;;;17.30;11.70;;;;;;;19.02;92.22;95880.00;2050065;29;20051;-59
2023/08/15 00:58:59;;;;;;;15.77;10.07;;;;;;;19.03;92.19;95892.22;2058294;28;20054;-59
2023/08/15 01:00:01;;;;;;;13.48;9.05;;;;;;;18.94;92.78;95883.25;2042600;29;20074;-59
2023/08/15 01:01:02;;;;;;;13.48;9.23;;;;;;;19.01;92.39;95902.03;2050459;28;20043;-59
2023/08/15 01:02:04;;;;;;;12.48;9.38;;;;;;;18.98;92.58;95899.66;2066732;28;20069;-58
2023/08/15 01:03:05;;;;;;;14.82;10.18;;;;;;;18.95;92.73;95889.34;2058195;28;20054;-59
2023/08/15 01:04:07;;;;;;;12.88;11.02;;;;;;;19.02;92.76;95897.59;2057543;28;20051;-59
2023/08/15 01:05:08;;;;;;;15.40;11.40;;;;;;;19.05;92.71;95895.53;2066818;28;20054;-59
2023/08/15 01:06:09;;;;;;;15.82;11.57;;;;;;;19.08;92.46;95895.28;2058482;28;20051;-59
2023/08/15 01:07:10;;;;;;;14.23;11.43;;;;;;;19.06;92.23;95888.47;2058010;28;20062;-59
2023/08/15 01:08:11;;;;;;;13.95;9.32;;;;;;;19.06;92.51;95891.97;2066813;28;20509;-59
2023/08/15 01:09:13;;;;;;;12.63;9.70;;;;;;;19.05;92.45;95892.06;2066452;28;20057;-59
2023/08/15 01:10:14;;;;;;;14.20;10.77;;;;;;;19.02;92.24;95894.97;2066318;28;20046;-59
2023/08/15 01:11:15;;;;;;;12.65;10.75;;;;;;;19.01;92.59;95894.13;2066575;28;20410;-59
2023/08/15 01:12:25;;;;;;;15.73;11.05;;;;;;;19.01;92.23;95894.13;2066827;28;20057;-59
2023/08/15 01:13:31;;;;;;;15.45;11.50;;;;;;;19.00;92.45;95889.81;2062379;28;20062;-59
2023/08/15 01:14:37;;;;;;;14.30;10.55;;;;;;;19.01;92.36;95888.88;2058318;28;20442;-59
2023/08/15 01:15:41;;;;;;;13.10;10.82;;;;;;;19.00;92.51;95897.72;2051288;28;20428;-59
2023/08/15 01:16:43;;;;;;;12.13;10.75;;;;;;;18.96;92.65;95898.94;2049892;29;20051;-59
2023/08/15 01:17:52;;;;;;;13.10;9.80;;;;;;;18.95;93.14;95890.22;2034981;29;20060;-59
2023/08/15 01:19:06;;;;;;;;;;;;;;;18.96;93.02;95901.56;2045353;28;20440;-59
2023/08/15 01:20:08;;;;;;;15.77;11.25;;;;;;;18.92;92.58;95881.72;2051609;28;19921;-59
2023/08/15 01:21:11;;;;;;;20.23;12.73;;;;;;;18.97;92.86;95894.50;2042546;29;20119;-60
2023/08/15 01:22:16;;;;;;;15.50;12.52;;;;;;;18.95;92.88;95884.94;2050037;28;20427;-59
2023/08/15 01:23:20;;;;;;;14.35;12.27;;;;;;;18.93;92.88;95886.88;2058593;28;20058;-59
2023/08/15 01:24:21;;;;;;;15.05;11.75;;;;;;;19.00;93.07;95895.06;2057891;28;20058;-59
2023/08/15 01:25:22;;;;;;;16.45;11.20;;;;;;;19.01;92.77;95888.88;2058600;28;20055;-59
2023/08/15 01:26:23;;;;;;;14.25;11.63;;;;;;;18.99;92.83;95884.69;2066360;28;20054;-59
2023/08/15 01:27:24;;;;;;;12.73;10.07;;;;;;;18.94;92.72;95882.44;2066417;28;20053;-59
2023/08/15 01:28:26;;;;;;;14.20;12.00;;;;;;;18.94;93.01;95885.06;2066418;28;20061;-59
2023/08/15 01:29:27;;;;;;;14.90;13.20;;;;;;;18.93;93.27;95886.88;2066533;28;20055;-59
2023/08/15 01:30:28;;;;;;;17.10;13.85;;;;;;;18.92;92.81;95884.34;2066341;28;20575;-59
2023/08/15 01:31:36;;;;;;;16.27;12.77;;;;;;;18.91;93.12;95885.31;2057890;28;20058;-59
2023/08/15 01:32:43;;;;;;;14.40;12.50;;;;;;;18.93;93.32;95892.13;2051238;28;20055;-59
2023/08/15 01:34:02;;;;;;;16.13;13.10;;;;;;;18.90;92.95;95878.41;2058656;28;20059;-59
2023/08/15 01:35:06;;;;;;;14.80;13.07;;;;;;;18.92;92.99;95887.84;2066952;28;20505;-59
2023/08/15 01:36:15;;;;;;;19.52;13.63;;;;;;;18.91;93.27;95887.94;2065712;28;20453;-59
2023/08/15 01:37:29;;;;;;;15.32;13.23;;;;;;;18.85;93.47;95883.19;2058394;28;20062;-59
2023/08/15 01:38:47;;;;;;;15.35;12.77;;;;;;;18.82;93.39;95879.03;2051756;28;20047;-59
2023/08/15 01:39:49;;;;;;;17.80;13.10;;;;;;;18.80;93.40;95874.84;2044428;29;20056;-59
2023/08/15 01:40:50;;;;;;;15.80;13.80;;;;;;;18.84;93.79;95882.34;2050208;28;20106;-59
2023/08/15 01:41:52;;;;;;;16.60;13.57;;;;;;;18.80;93.36;95880.94;2050143;28;20063;-59
2023/08/15 01:42:55;;;;;;;15.68;12.77;;;;;;;18.83;93.47;95874.59;2049700;29;20055;-59
2023/08/15 01:43:59;;;;;;;16.95;13.27;;;;;;;18.82;93.35;95880.78;2043357;28;20459;-59
2023/08/15 01:45:00;;;;;;;17.50;13.20;;;;;;;18.80;93.29;95880.13;2057527;28;20066;-59
2023/08/15 01:46:05;;;;;;;15.82;13.27;;;;;;;18.79;93.59;95875.78;2049934;29;20043;-59
2023/08/15 01:47:06;;;;;;;17.70;13.50;;;;;;;18.79;93.73;95878.41;2050095;29;20058;-59
2023/08/15 01:48:07;;;;;;;14.13;11.93;;;;;;;18.78;93.72;95877.59;2050157;28;20495;-59
2023/08/15 01:49:09;;;;;;;19.40;13.10;;;;;;;18.77;93.81;95881.19;2065964;28;20051;-59
2023/08/15 01:50:10;;;;;;;14.77;12.55;;;;;;;18.77;93.86;95881.19;2066665;28;20054;-59
2023/08/15 01:51:11;;;;;;;14.60;12.10;;;;;;;18.77;93.77;95880.38;2066853;28;20479;-59
2023/08/15 01:52:12;;;;;;;14.95;12.35;;;;;;;18.77;94.04;95880.38;2066065;28;20049;-59
2023/08/15 01:53:14;;;;;;;18.10;13.55;;;;;;;18.75;93.84;95882.28;2066686;28;20057;-59
2023/08/15 01:54:15;;;;;;;16.48;12.98;;;;;;;18.74;93.73;95876.16;2066054;28;20390;-59
2023/08/15 01:55:16;;;;;;;16.17;12.95;;;;;;;18.75;94.16;95884.91;2066193;28;20054;-59
2023/08/15 01:56:18;;;;;;;16.52;13.00;;;;;;;18.73;93.86;95877.94;2057998;28;20047;-59
2023/08/15 01:57:19;;;;;;;15.82;13.23;;;;;;;18.73;93.88;95879.72;2057975;28;20107;-59
2023/08/15 01:58:20;;;;;;;15.93;13.27;;;;;;;18.74;94.08;95870.91;2050000;28;20055;-59
2023/08/15 01:59:21;;;;;;;14.90;12.32;;;;;;;18.73;94.17;95880.56;2050231;28;20430;-59
2023/08/15 02:00:22;;;;;;;16.88;13.60;;;;;;;18.73;94.23;95880.56;2057475;28;20051;-59
2023/08/15 02:01:23;;;;;;;16.23;13.25;;;;;;;18.68;93.97;95866.13;2065955;28;20058;-59
2023/08/15 02:02:24;;;;;;;18.55;13.02;;;;;;;18.74;94.01;95876.16;2057788;28;20065;-59
2023/08/15 02:03:25;;;;;;;15.45;13.27;;;;;;;18.76;93.55;95876.03;2058016;28;20058;-59
2023/08/15 02:04:26;;;;;;;16.48;12.20;;;;;;;18.77;93.85;95870.69;2065795;28;20065;-59
2023/08/15 02:05:28;;;;;;;15.02;13.48;;;;;;;18.78;93.57;95871.50;2057964;28;20055;-59
2023/08/15 02:06:29;;;;;;;13.40;11.93;;;;;;;18.77;93.53;95878.56;2057853;28;20058;-59
2023/08/15 02:07:30;;;;;;;17.13;13.45;;;;;;;18.76;93.53;95878.69;2065630;28;20058;-59
2023/08/15 02:08:31;;;;;;;16.80;12.35;;;;;;;18.68;93.13;95874.88;2057747;28;20541;-60
2023/08/15 02:09:32;;;;;;;14.70;13.02;;;;;;;18.73;93.38;95872.66;2058248;28;20055;-59
2023/08/15 02:10:33;;;;;;;14.77;12.15;;;;;;;18.72;93.14;95878.91;2066495;28;20058;-59
2023/08/15 02:11:34;;;;;;;18.73;12.77;;;;;;;18.71;93.18;95876.38;2056927;28;20399;-59
2023/08/15 02:12:35;;;;;;;15.57;11.63;;;;;;;18.68;93.38;95880.13;2058039;28;20066;-58
2023/08/15 02:13:37;;;;;;;16.17;12.27;;;;;;;18.65;93.72;95871.63;2057454;28;20062;-59
2023/08/15 02:14:38;;;;;;;14.57;12.23;;;;;;;18.63;93.42;95874.41;2057841;28;20055;-59
2023/08/15 02:15:41;;;;;;;15.50;12.32;;;;;;;18.61;93.55;95873.69;2065950;28;20073;-59
2023/08/15 02:16:42;;;;;;;15.38;12.20;;;;;;;18.61;93.74;95873.69;2065563;28;20057;-59
2023/08/15 02:17:44;;;;;;;15.55;11.77;;;;;;;18.63;93.41;95870.91;2057366;28;20478;-59
2023/08/15 02:18:45;;;;;;;15.15;12.32;;;;;;;18.58;93.21;95862.56;2057861;28;20062;-59
2023/08/15 02:19:46;;;;;;;14.98;11.98;;;;;;;18.63;93.04;95863.88;2066415;28;20054;-59
2023/08/15 02:20:47;;;;;;;15.48;12.68;;;;;;;18.60;93.26;95858.03;2066007;28;20058;-59
2023/08/15 02:21:48;;;;;;;13.50;12.02;;;;;;;18.61;92.84;95871.06;2057217;28;20430;-59
2023/08/15 02:22:50;;;;;;;16.42;12.50;;;;;;;18.61;92.79;95865.78;2057759;28;20420;-59
2023/08/15 02:23:51;;;;;;;13.88;11.95;;;;;;;18.56;93.38;95857.44;2065908;28;20061;-60
2023/08/15 02:24:52;;;;;;;15.88;12.18;;;;;;;18.62;92.91;95871.88;2065966;28;20054;-60
2023/08/15 02:25:53;;;;;;;13.95;12.32;;;;;;;18.61;92.99;95872.84;2066435;28;20054;-59
2023/08/15 02:26:54;;;;;;;15.63;13.10;;;;;;;18.59;93.40;95867.72;2057649;28;20550;-59
2023/08/15 02:27:55;;;;;;;13.85;12.05;;;;;;;18.55;93.51;95858.41;2058183;28;20054;-59
2023/08/15 02:28:57;;;;;;;14.73;12.00;;;;;;;18.57;93.56;95863.53;2057170;28;20055;-59
2023/08/15 02:30:01;;;;;;;14.32;11.90;;;;;;;18.56;93.39;95864.50;2065838;28;20061;-59
2023/08/15 02:31:05;;;;;;;12.52;11.13;;;;;;;18.51;93.50;95862.25;2066084;28;20105;-59
2023/08/15 02:32:06;;;;;;;14.40;11.80;;;;;;;18.52;93.10;95863.91;2066361;28;20050;-59
2023/08/15 02:33:07;;;;;;;13.98;11.68;;;;;;;18.48;92.72;95850.16;2057793;28;20051;-59
2023/08/15 02:34:08;;;;;;;15.15;11.52;;;;;;;18.54;93.29;95867.25;2057339;28;20518;-60
2023/08/15 02:35:09;;;;;;;14.80;11.63;;;;;;;18.55;92.65;95860.19;2066247;28;20050;-60
2023/08/15 02:36:10;;;;;;;14.13;11.45;;;;;;;18.56;92.96;95861.88;2066301;28;20050;-59
2023/08/15 02:37:12;;;;;;;12.98;10.95;;;;;;;18.52;93.26;95870.00;2066035;28;20050;-59
2023/08/15 02:38:13;;;;;;;14.10;11.38;;;;;;;18.53;92.98;95868.22;2057582;28;20507;-59
2023/08/15 02:39:15;;;;;;;12.90;11.10;;;;;;;18.50;92.98;95866.66;2057612;28;20066;-59
2023/08/15 02:40:16;;;;;;;12.88;10.55;;;;;;;18.51;92.66;95867.50;2065738;28;20054;-59
2023/08/15 02:41:20;;;;;;;13.07;11.25;;;;;;;18.49;91.89;95867.59;2065309;28;20058;-59
2023/08/15 02:42:21;;;;;;;12.63;10.73;;;;;;;18.50;92.26;95866.66;2065810;28;20077;-59
2023/08/15 02:43:22;;;;;;;14.48;10.07;;;;;;;18.45;91.93;95857.50;2066158;28;20061;-59
2023/08/15 02:44:24;;;;;;;15.98;10.82;;;;;;;18.48;91.78;95860.69;2056877;28;20054;-59
2023/08/15 02:45:25;;;;;;;13.07;10.30;;;;;;;18.45;91.55;95860.94;2049824;28;20054;-59
2023/08/15 02:46:28;;;;;;;11.23;10.07;;;;;;;18.46;91.99;95865.22;2057757;28;20494;-60
2023/08/15 02:47:29;;;;;;;11.73;10.50;;;;;;;18.45;91.75;95862.75;2065286;28;20058;-59
2023/08/15 02:48:30;;;;;;;13.48;9.73;;;;;;;18.42;91.27;95853.31;2066356;28;20046;-59
2023/08/15 02:49:31;;;;;;;12.90;10.20;;;;;;;18.43;91.30;95859.41;2066287;28;20061;-59
2023/08/15 02:50:32;;;;;;;12.65;9.55;;;;;;;18.43;91.13;95859.41;2066153;28;20061;-58
2023/08/15 02:51:33;;;;;;;14.18;10.00;;;;;;;18.42;91.77;95865.63;2065483;28;20077;-59
2023/08/15 02:52:34;;;;;;;10.45;9.35;;;;;;;18.42;91.55;95863.00;2065447;28;20054;-59
2023/08/15 02:53:36;;;;;;;12.82;8.95;;;;;;;18.36;91.18;95850.31;2057220;28;20055;-59
2023/08/15 02:54:37;;;;;;;10.88;8.63;;;;;;;18.38;91.03;95862.38;2057445;28;20058;-59
2023/08/15 02:55:38;;;;;;;12.23;9.80;;;;;;;18.36;91.06;95859.03;2065494;28;20057;-58
2023/08/15 02:56:39;;;;;;;11.38;9.23;;;;;;;18.34;91.43;95865.41;2066233;28;20534;-59
2023/08/15 02:57:40;;;;;;;12.38;8.55;;;;;;;18.30;90.89;95863.00;2066270;28;20061;-59
2023/08/15 02:58:41;;;;;;;12.73;8.98;;;;;;;18.28;91.46;95857.06;2065739;28;20057;-59
2023/08/15 02:59:43;;;;;;;12.23;8.23;;;;;;;18.25;90.97;95859.91;2057723;28;20055;-59
2023/08/15 03:00:44;;;;;;;10.20;8.70;;;;;;;18.23;91.24;95853.94;2057459;28;20059;-59
2023/08/15 03:01:46;;;;;;;11.73;8.27;;;;;;;18.22;91.04;95860.16;2057689;28;20535;-59
2023/08/15 03:02:47;;;;;;;11.10;7.93;;;;;;;18.18;91.22;95858.75;2057635;28;20066;-59
2023/08/15 03:03:49;;;;;;;9.48;8.10;;;;;;;18.12;91.63;95859.22;2065088;28;20061;-59
2023/08/15 03:04:50;;;;;;;13.60;9.00;;;;;;;18.17;91.90;95864.94;2065866;28;20062;-59
2023/08/15 03:05:51;;;;;;;9.27;7.68;;;;;;;18.11;92.03;95867.22;2065922;28;20050;-60
2023/08/15 03:06:52;;;;;;;9.88;8.88;;;;;;;18.08;91.89;95865.69;2057633;28;20062;-59
2023/08/15 03:07:53;;;;;;;9.82;8.30;;;;;;;18.03;91.98;95868.66;2057338;28;20061;-59
2023/08/15 03:08:54;;;;;;;11.32;8.25;;;;;;;17.96;92.69;95864.88;2065341;28;20081;-59
2023/08/15 03:09:55;;;;;;;9.88;8.05;;;;;;;17.93;92.33;95857.19;2066339;28;20054;-59
2023/08/15 03:10:58;;;;;;;10.88;8.30;;;;;;;17.93;93.01;95859.00;2065616;28;20045;-59
2023/08/15 03:11:59;;;;;;;12.13;9.05;;;;;;;17.97;92.62;95865.69;2057167;28;20058;-59
2023/08/15 03:13:01;;;;;;;10.20;8.63;;;;;;;17.93;92.59;95859.00;2049173;29;20058;-60
2023/08/15 03:14:03;;;;;;;10.65;8.57;;;;;;;17.99;92.32;95866.38;2057153;28;20051;-59
2023/08/15 03:15:04;;;;;;;11.38;9.30;;;;;;;17.99;92.34;95867.25;2057217;28;20061;-59
2023/08/15 03:16:05;;;;;;;9.90;8.27;;;;;;;17.96;92.64;95867.50;2057254;28;20047;-59
2023/08/15 03:17:07;;;;;;;10.25;7.95;;;;;;;17.93;92.27;95864.25;2057119;28;20054;-59
2023/08/15 03:18:09;;;;;;;11.73;7.53;;;;;;;17.91;92.12;95863.53;2049330;28;20047;-59
2023/08/15 03:19:10;;;;;;;9.77;8.18;;;;;;;17.92;92.25;95867.84;2048862;29;20062;-59
2023/08/15 03:20:12;;;;;;;9.85;8.68;;;;;;;17.90;91.75;95864.50;2056985;28;20503;-59
2023/08/15 03:21:13;;;;;;;10.68;8.63;;;;;;;17.91;92.39;95872.28;2057096;28;20081;-59
2023/08/15 03:22:14;;;;;;;11.68;8.57;;;;;;;17.90;92.19;95870.59;2056982;28;20058;-59
2023/08/15 03:23:15;;;;;;;9.50;8.50;;;;;;;17.94;91.86;95869.41;2057474;28;20067;-59
2023/08/15 03:24:17;;;;;;;11.05;8.25;;;;;;;17.90;91.75;95859.25;2049544;28;20063;-59
2023/08/15 03:25:18;;;;;;;8.65;7.63;;;;;;;17.95;91.61;95867.59;2057434;28;20143;-59
2023/08/15 03:26:19;;;;;;;9.13;8.10;;;;;;;17.95;91.54;95857.91;2057065;28;20434;-59
2023/08/15 03:27:20;;;;;;;8.80;7.80;;;;;;;17.96;91.17;95864.88;2065310;28;20050;-59
2023/08/15 03:28:21;;;;;;;12.15;9.00;;;;;;;17.91;90.78;95855.66;2064718;28;20057;-59
2023/08/15 03:29:23;;;;;;;11.02;8.50;;;;;;;17.95;91.35;95862.34;2065395;28;20050;-59
2023/08/15 03:30:24;;;;;;;9.98;7.82;;;;;;;17.94;90.85;95866.78;2057287;28;20462;-59
2023/08/15 03:31:26;;;;;;;11.35;7.88;;;;;;;17.91;91.18;95863.53;2056906;28;20054;-60
2023/08/15 03:32:31;;;;;;;10.75;7.72;;;;;;;17.94;91.06;95860.69;2049651;28;20399;-59
2023/08/15 03:33:32;;;;;;;10.05;8.60;;;;;;;17.89;90.55;95853.16;2057157;28;20077;-59
2023/08/15 03:34:34;;;;;;;11.77;8.23;;;;;;;17.94;90.89;95865.94;2056908;28;20503;-59
2023/08/15 03:35:35;;;;;;;11.75;8.90;;;;;;;17.89;90.96;95857.59;2048984;29;20055;-59
2023/08/15 03:36:36;;;;;;;11.48;7.75;;;;;;;17.93;91.10;95864.25;2057153;28;20062;-60
2023/08/15 03:37:38;;;;;;;10.18;7.90;;;;;;;17.89;90.81;95861.03;2056860;28;20459;-59
2023/08/15 03:38:41;;;;;;;10.90;8.15;;;;;;;17.87;90.61;95867.38;2064782;28;20062;-59
2023/08/15 03:39:42;;;;;;;10.63;8.07;;;;;;;17.87;91.29;95865.56;2065479;28;20081;-59
2023/08/15 03:40:43;;;;;;;9.75;7.75;;;;;;;17.90;90.97;95865.31;2065857;28;20525;-60
2023/08/15 03:41:45;;;;;;;11.85;8.18;;;;;;;17.91;91.23;95871.41;2056487;28;20059;-59
2023/08/15 03:42:46;;;;;;;9.60;7.45;;;;;;;17.92;91.15;95867.84;2057377;28;20058;-59
2023/08/15 03:43:47;;;;;;;10.48;8.00;;;;;;;17.90;91.31;95864.50;2065217;28;20058;-59
2023/08/15 03:44:48;;;;;;;12.57;8.00;;;;;;;17.91;90.79;95863.53;2065116;28;20058;-59
2023/08/15 03:45:49;;;;;;;10.48;7.50;;;;;;;17.89;91.33;95863.66;2064744;28;20058;-60
2023/08/15 03:46:50;;;;;;;12.63;7.88;;;;;;;17.88;90.71;95861.97;2056985;28;20051;-59
2023/08/15 03:47:52;;;;;;;11.77;8.00;;;;;;;17.91;91.07;95868.78;2056984;28;20054;-60
2023/08/15 03:48:53;;;;;;;12.15;8.38;;;;;;;17.91;91.26;95863.53;2065285;28;20053;-60
2023/08/15 03:49:54;;;;;;;10.25;8.57;;;;;;;17.91;91.54;95868.78;2057077;28;20136;-60
2023/08/15 03:50:55;;;;;;;10.13;7.90;;;;;;;17.87;91.36;95873.44;2049527;28;20062;-60
2023/08/15 03:51:59;;;;;;;10.15;8.45;;;;;;;17.87;91.36;95870.00;2057708;28;20504;-60
2023/08/15 03:53:02;;;;;;;8.57;7.78;;;;;;;17.83;91.36;95865.00;2056720;28;20427;-60
2023/08/15 03:54:04;;;;;;;10.07;8.43;;;;;;;17.83;91.86;95872.88;2057240;28;20053;-60
2023/08/15 03:55:05;;;;;;;10.40;7.88;;;;;;;17.83;91.79;95874.66;2065318;28;20058;-60
2023/08/15 03:56:07;;;;;;;10.43;8.80;;;;;;;17.80;91.85;95867.84;2056385;28;20057;-60
2023/08/15 03:57:08;;;;;;;13.02;8.07;;;;;;;17.79;92.01;95873.22;2057285;28;20515;-60
2023/08/15 03:58:09;;;;;;;9.80;7.72;;;;;;;17.75;92.14;95872.59;2065866;28;20061;-60
2023/08/15 03:59:11;;;;;;;10.40;8.63;;;;;;;17.70;91.81;95863.41;2056401;28;20431;-59
2023/08/15 04:00:13;;;;;;;10.75;8.55;;;;;;;17.72;92.13;95875.47;2056599;28;20049;-59
2023/08/15 04:01:17;;;;;;;12.57;7.57;;;;;;;17.71;92.59;95870.31;2057512;28;20062;-59
2023/08/15 04:02:18;;;;;;;13.98;8.07;;;;;;;17.75;92.33;95872.59;2064885;28;20077;-59
2023/08/15 04:03:19;;;;;;;10.23;8.57;;;;;;;17.70;92.25;95869.50;2064959;28;20525;-59
2023/08/15 04:04:21;;;;;;;13.35;8.73;;;;;;;17.74;92.81;95881.41;2056669;28;20462;-59
2023/08/15 04:05:24;;;;;;;8.75;7.90;;;;;;;17.75;92.11;95877.00;2056496;28;20065;-60
2023/08/15 04:06:25;;;;;;;10.18;8.27;;;;;;;17.75;92.12;95869.97;2057076;28;20070;-59
2023/08/15 04:07:26;;;;;;;11.57;7.80;;;;;;;17.73;92.24;95871.88;2049241;29;20067;-59
2023/08/15 04:08:27;;;;;;;10.05;8.23;;;;;;;17.75;91.98;95872.59;2049434;28;20078;-60
2023/08/15 04:09:29;;;;;;;9.60;8.30;;;;;;;17.77;91.67;95870.66;2049253;28;20085;-59
2023/08/15 04:10:30;;;;;;;11.82;8.82;;;;;;;17.80;91.85;95878.38;2049046;29;20070;-59
2023/08/15 04:11:31;;;;;;;10.10;7.63;;;;;;;17.78;91.05;95872.34;2056410;28;20062;-59
2023/08/15 04:12:36;;;;;;;10.40;7.85;;;;;;;17.81;90.75;95877.41;2056440;28;20055;-59
2023/08/15 04:13:37;;;;;;;8.63;7.72;;;;;;;17.83;90.68;95880.75;2057174;28;20540;-59
2023/08/15 04:14:39;;;;;;;10.20;8.02;;;;;;;17.83;89.96;95875.50;2065459;28;20410;-59
2023/08/15 04:15:40;;;;;;;10.13;7.60;;;;;;;17.85;89.44;95878.84;2057013;28;20063;-59
2023/08/15 04:16:42;;;;;;;10.82;7.65;;;;;;;17.88;88.68;95877.75;2057104;28;20058;-60
2023/08/15 04:17:43;;;;;;;10.50;7.32;;;;;;;17.91;89.07;95882.78;2064553;28;20059;-60
2023/08/15 04:18:46;;;;;;;11.10;7.13;;;;;;;17.93;88.60;95877.38;2056377;28;20545;-59
2023/08/15 04:19:47;;;;;;;9.50;7.50;;;;;;;17.95;88.87;95875.47;2056381;28;20050;-59
2023/08/15 04:20:48;;;;;;;14.90;8.13;;;;;;;17.99;88.67;95884.78;2057121;28;20054;-59
2023/08/15 04:21:49;;;;;;;8.43;7.32;;;;;;;18.01;88.68;95886.34;2056839;28;20067;-59
2023/08/15 04:22:52;;;;;;;9.25;7.57;;;;;;;18.07;88.53;95882.41;2065103;28;20503;-59
2023/08/15 04:23:53;;;;;;;11.80;7.93;;;;;;;18.11;88.08;95883.81;2057033;28;20062;-59
2023/08/15 04:24:54;;;;;;;8.43;7.40;;;;;;;18.13;88.45;95887.19;2056986;28;20062;-60
2023/08/15 04:25:55;;;;;;;9.30;7.43;;;;;;;18.21;87.65;95883.94;2056901;28;20053;-60
2023/08/15 04:26:59;;;;;;;9.75;7.40;;;;;;;18.24;87.78;95884.53;2040963;29;20056;-60
2023/08/15 04:28:01;;;;;;;10.40;7.93;;;;;;;18.28;87.12;95888.59;2056605;28;20073;-60
2023/08/15 04:29:02;;;;;;;10.82;7.70;;;;;;;18.35;86.98;95891.56;2048927;28;20480;-60
2023/08/15 04:30:06;;;;;;;9.27;7.53;;;;;;;18.36;86.59;95884.50;2056932;28;20054;-59
2023/08/15 04:31:08;;;;;;;8.40;7.60;;;;;;;18.40;87.14;95886.75;2056837;28;20051;-59
2023/08/15 04:32:09;;;;;;;9.73;7.35;;;;;;;18.36;87.20;95880.06;2056871;28;20430;-60
2023/08/15 04:33:10;;;;;;;8.85;7.45;;;;;;;18.47;86.44;95894.97;2056975;28;20195;-60
2023/08/15 04:34:11;;;;;;;8.70;7.30;;;;;;;18.48;86.41;95886.16;2056818;28;20043;-60
2023/08/15 04:35:14;;;;;;;9.68;7.30;;;;;;;18.55;86.89;95892.59;2056497;28;20061;-59
2023/08/15 04:36:15;;;;;;;7.75;6.93;;;;;;;18.62;86.32;95895.56;2056650;28;20458;-58
2023/08/15 04:37:16;;;;;;;8.02;7.22;;;;;;;18.73;86.24;95891.06;2057018;28;20047;-59
2023/08/15 04:38:17;;;;;;;10.02;6.78;;;;;;;18.73;85.36;95887.63;2056838;28;20067;-60
2023/08/15 04:39:19;;;;;;;7.20;6.50;;;;;;;18.86;85.22;95892.75;2056797;28;20062;-60
2023/08/15 04:40:40;;;;;;;8.70;6.90;;;;;;;18.97;84.40;95892.69;2057143;28;20062;-60
2023/08/15 04:41:42;;;;;;;8.73;6.72;;;;;;;19.07;84.34;95890.16;2065888;28;20467;-59
2023/08/15 04:42:43;;;;;;;8.43;6.72;;;;;;;19.16;83.64;95887.59;2065583;28;20154;-59
2023/08/15 04:43:44;;;;;;;10.32;6.18;;;;;;;19.30;82.75;95888.22;2065785;28;20430;-59
2023/08/15 04:44:45;;;;;;;9.32;6.57;;;;;;;19.41;81.87;95885.53;2056888;28;20062;-59
2023/08/15 04:45:46;;;;;;;9.10;7.18;;;;;;;19.60;80.87;95883.00;2056364;28;20063;-60
2023/08/15 04:46:48;;;;;;;9.82;7.35;;;;;;;19.76;79.30;95881.75;2057016;28;20065;-59
2023/08/15 04:47:50;;;;;;;8.88;6.63;;;;;;;19.74;79.18;95879.22;2057096;28;20484;-59